createdAt,value
2022-08-02T00:02:26.788Z,100.00
2022-08-02T00:07:23.156Z,100.00
2022-08-02T00:12:19.545Z,100.00
2022-08-02T00:17:16.096Z,100.00
2022-08-02T00:22:13.142Z,100.00
2022-08-02T00:27:09.986Z,100.00
2022-08-02T00:32:06.444Z,100.00
2022-08-02T00:37:03.891Z,100.00
2022-08-02T00:42:00.265Z,100.00
2022-08-02T00:46:56.639Z,100.00
2022-08-02T00:51:53.139Z,100.00
2022-08-02T00:56:51.223Z,100.00
2022-08-02T01:01:56.235Z,100.00
2022-08-02T01:06:54.448Z,100.00
2022-08-02T01:11:50.798Z,100.00
2022-08-02T01:16:52.757Z,100.00
2022-08-02T01:22:12.464Z,100.00
2022-08-02T01:27:31.621Z,100.00
2022-08-02T01:32:33.725Z,100.00
2022-08-02T01:37:51.590Z,100.00
2022-08-02T01:42:52.578Z,100.00
2022-08-02T01:47:50.466Z,100.00
2022-08-02T01:52:53.020Z,100.00
2022-08-02T01:57:57.473Z,100.00
2022-08-02T02:02:56.868Z,100.00
2022-08-02T02:07:58.308Z,100.00
2022-08-02T02:12:56.132Z,100.00
2022-08-02T02:18:12.630Z,100.00
2022-08-02T02:23:11.354Z,100.00
2022-08-02T02:28:12.900Z,100.00
2022-08-02T02:33:11.555Z,100.00
2022-08-02T02:38:11.342Z,100.00
2022-08-02T02:43:10.163Z,100.00
2022-08-02T02:48:08.560Z,100.00
2022-08-02T02:53:06.886Z,100.00
2022-08-02T02:58:03.656Z,100.00
2022-08-02T03:03:00.134Z,100.00
2022-08-02T03:07:56.535Z,100.00
2022-08-02T03:12:53.349Z,100.00
2022-08-02T03:17:49.679Z,100.00
2022-08-02T03:22:46.868Z,100.00
2022-08-02T03:27:43.272Z,100.00
2022-08-02T03:32:41.401Z,100.00
2022-08-02T03:37:38.479Z,100.00
2022-08-02T03:42:35.189Z,100.00
2022-08-02T03:47:33.302Z,100.00
2022-08-02T03:52:31.550Z,100.00
2022-08-02T03:57:27.992Z,100.00
2022-08-02T04:02:24.381Z,100.00
2022-08-02T04:08:33.849Z,100.00
2022-08-02T04:12:37.924Z,100.00
2022-08-02T04:17:37.825Z,100.00
2022-08-02T04:22:39.307Z,100.00
2022-08-02T04:27:50.146Z,100.00
2022-08-02T04:32:47.935Z,100.00
2022-08-02T04:38:09.490Z,100.00
2022-08-02T04:43:01.534Z,100.00
2022-08-02T04:48:06.128Z,100.00
2022-08-02T04:53:02.860Z,100.00
2022-08-02T04:57:59.359Z,100.00
2022-08-02T05:02:57.088Z,100.00
2022-08-02T05:07:53.710Z,100.00
2022-08-02T05:12:50.304Z,100.00
2022-08-02T05:17:48.702Z,100.00
2022-08-02T05:22:46.015Z,100.00
2022-08-02T05:27:42.541Z,100.00
2022-08-02T05:32:49.449Z,100.00
2022-08-02T05:37:48.150Z,100.00
2022-08-02T05:42:44.867Z,100.00
2022-08-02T05:47:41.463Z,100.00
2022-08-02T05:52:49.649Z,100.00
2022-08-02T05:57:51.851Z,100.00
2022-08-02T06:03:16.898Z,100.00
2022-08-02T06:08:14.331Z,100.00
2022-08-02T06:13:14.756Z,100.00
2022-08-02T06:18:11.322Z,100.00
2022-08-02T06:23:13.545Z,100.00
2022-08-02T06:28:11.670Z,100.00
2022-08-02T06:33:08.884Z,100.00
2022-08-02T06:38:07.811Z,100.00
2022-08-02T06:43:20.312Z,100.00
2022-08-02T06:48:16.807Z,100.00
2022-08-02T06:53:13.591Z,100.00
2022-08-02T06:58:13.777Z,100.00
2022-08-02T07:03:10.378Z,100.00
2022-08-02T07:08:07.132Z,100.00
2022-08-02T07:13:03.570Z,100.00
2022-08-02T07:17:59.966Z,100.00
2022-08-02T07:22:56.365Z,100.00
2022-08-02T07:27:52.950Z,100.00
2022-08-02T07:32:52.953Z,100.00
2022-08-02T07:37:55.154Z,100.00
2022-08-02T07:43:03.474Z,100.00
2022-08-02T07:48:00.924Z,100.00
2022-08-02T07:52:57.874Z,100.00
2022-08-02T07:57:54.619Z,100.00
2022-08-02T08:02:50.988Z,100.00
2022-08-02T08:07:47.410Z,100.00
2022-08-02T08:12:43.762Z,100.00
2022-08-02T08:17:40.175Z,100.00
2022-08-02T08:22:36.634Z,100.00
2022-08-02T08:27:32.993Z,100.00
2022-08-02T08:32:29.386Z,100.00
2022-08-02T08:37:25.772Z,100.00
2022-08-02T08:42:22.199Z,100.00
2022-08-02T08:47:20.803Z,100.00
2022-08-02T08:52:20.073Z,100.00
2022-08-02T08:57:18.075Z,100.00
2022-08-02T09:02:16.895Z,100.00
2022-08-02T09:07:18.166Z,100.00
2022-08-02T09:12:16.184Z,100.00
2022-08-02T09:17:12.738Z,100.00
2022-08-02T09:22:13.389Z,100.00
2022-08-02T09:27:12.210Z,100.00
2022-08-02T09:32:08.896Z,100.00
2022-08-02T09:37:05.467Z,100.00
2022-08-02T09:42:10.581Z,100.00
2022-08-02T09:47:16.879Z,100.00
2022-08-02T09:52:14.257Z,100.00
2022-08-02T09:57:10.920Z,100.00
2022-08-02T10:02:14.805Z,100.00
2022-08-02T10:07:14.397Z,100.00
2022-08-02T10:12:12.122Z,100.00
2022-08-02T10:17:09.016Z,100.00
2022-08-02T10:22:10.386Z,100.00
2022-08-02T10:27:21.998Z,100.00
2022-08-02T10:32:27.182Z,100.00
2022-08-02T10:37:29.452Z,100.00
2022-08-02T10:42:47.021Z,100.00
2022-08-02T10:48:14.576Z,100.00
2022-08-02T10:53:31.179Z,100.00
2022-08-02T10:58:30.239Z,89.88
2022-08-02T11:03:29.680Z,93.82
2022-08-02T11:08:26.029Z,91.26
2022-08-02T11:13:22.524Z,93.19
2022-08-02T11:18:20.102Z,100.00
2022-08-02T11:23:44.480Z,87.96
2022-08-02T11:28:49.167Z,88.40
2022-08-02T11:33:45.785Z,98.94
2022-08-02T11:38:42.272Z,100.00
2022-08-02T11:43:39.954Z,92.20
2022-08-02T11:48:38.717Z,86.69
2022-08-02T11:53:43.112Z,98.76
2022-08-02T11:58:39.620Z,84.10
2022-08-02T12:03:39.665Z,82.95
2022-08-02T12:08:37.321Z,80.05
2022-08-02T12:13:44.069Z,94.82
2022-08-02T12:19:17.063Z,78.29
2022-08-02T12:24:13.698Z,84.84
2022-08-02T12:29:10.958Z,80.71
2022-08-02T12:34:16.902Z,81.41
2022-08-02T12:39:14.267Z,86.53
2022-08-02T12:44:19.632Z,77.16
2022-08-02T12:49:19.057Z,80.39
2022-08-02T12:54:17.834Z,67.96
2022-08-02T12:59:16.684Z,73.18
2022-08-02T13:04:16.333Z,65.42
2022-08-02T13:09:17.204Z,63.59
2022-08-02T13:14:15.338Z,61.49
2022-08-02T13:19:13.218Z,69.80
2022-08-02T13:24:32.890Z,68.14
2022-08-02T13:29:27.598Z,67.48
2022-08-02T13:34:24.243Z,65.33
2022-08-02T13:39:20.596Z,63.98
2022-08-02T13:44:18.477Z,67.99
2022-08-02T13:49:18.813Z,67.23
2022-08-02T13:54:16.900Z,65.85
2022-08-02T13:59:55.254Z,63.41
2022-08-02T14:04:30.821Z,61.90
2022-08-02T14:09:27.406Z,65.69
2022-08-02T14:14:23.838Z,66.93
2022-08-02T14:19:21.903Z,61.36
2022-08-02T14:24:20.385Z,62.50
2022-08-02T14:29:17.248Z,62.97
2022-08-02T14:34:13.918Z,62.04
2022-08-02T14:39:10.731Z,60.20
2022-08-02T14:44:10.511Z,62.28
2022-08-02T14:49:09.284Z,63.21
2022-08-02T14:54:08.627Z,61.98
2022-08-02T14:59:08.693Z,61.01
2022-08-02T15:04:05.057Z,58.53
2022-08-02T15:09:01.621Z,58.33
2022-08-02T15:13:59.914Z,60.50
2022-08-02T15:18:56.260Z,61.18
2022-08-02T15:23:52.909Z,63.95
2022-08-02T15:28:55.633Z,68.11
2022-08-02T15:33:52.234Z,66.71
2022-08-02T15:38:48.897Z,59.56
2022-08-02T15:44:00.702Z,61.13
2022-08-02T15:48:57.874Z,64.13
2022-08-02T15:53:56.199Z,63.77
2022-08-02T15:58:56.023Z,67.01
2022-08-02T16:03:55.406Z,59.13
2022-08-02T16:08:54.896Z,70.10
2022-08-02T16:13:54.376Z,58.97
2022-08-02T16:18:51.728Z,57.21
2022-08-02T16:24:01.460Z,59.04
2022-08-02T16:28:59.770Z,59.79
2022-08-02T16:33:57.135Z,56.27
2022-08-02T16:38:54.531Z,52.65
2022-08-02T16:43:50.870Z,50.30
2022-08-02T16:48:51.113Z,50.09
2022-08-02T16:54:00.678Z,48.75
2022-08-02T16:58:59.507Z,48.53
2022-08-02T17:03:57.987Z,46.96
2022-08-02T17:08:56.340Z,46.02
2022-08-02T17:13:52.835Z,46.07
2022-08-02T17:18:49.507Z,50.22
2022-08-02T17:24:03.999Z,49.63
2022-08-02T17:29:16.106Z,43.58
2022-08-02T17:34:13.933Z,37.89
2022-08-02T17:39:13.192Z,37.83
2022-08-02T17:44:11.788Z,39.16
2022-08-02T17:49:17.554Z,34.90
2022-08-02T17:54:18.656Z,35.56
2022-08-02T17:59:30.856Z,34.48
2022-08-02T18:04:38.072Z,34.20
2022-08-02T18:09:34.622Z,33.10
2022-08-02T18:14:31.190Z,33.90
2022-08-02T18:19:42.663Z,35.49
2022-08-02T18:24:45.001Z,34.04
2022-08-02T18:29:41.411Z,34.69
2022-08-02T18:34:37.771Z,36.57
2022-08-02T18:39:38.454Z,37.13
2022-08-02T18:44:35.013Z,39.07
2022-08-02T18:49:46.185Z,46.00
2022-08-02T18:54:44.287Z,55.79
2022-08-02T18:59:41.920Z,75.34
2022-08-02T19:04:43.508Z,89.71
2022-08-02T19:09:43.263Z,100.00
2022-08-02T19:14:42.715Z,100.00
2022-08-02T19:19:39.175Z,100.00
2022-08-02T19:24:37.441Z,100.00
2022-08-02T19:29:42.672Z,100.00
2022-08-02T19:34:45.957Z,100.00
2022-08-02T19:39:45.731Z,100.00
2022-08-02T19:44:45.627Z,100.00
2022-08-02T19:49:42.218Z,100.00
2022-08-02T19:54:54.257Z,100.00
2022-08-02T19:59:53.910Z,100.00
2022-08-02T20:04:53.089Z,100.00
2022-08-02T20:09:50.615Z,100.00
2022-08-02T20:14:51.308Z,100.00
2022-08-02T20:19:47.833Z,100.00
2022-08-02T20:24:46.856Z,100.00
2022-08-02T20:29:48.697Z,100.00
2022-08-02T20:34:48.550Z,100.00
2022-08-02T20:39:45.149Z,100.00
2022-08-02T20:44:42.213Z,100.00
2022-08-02T20:49:58.598Z,100.00
2022-08-02T20:54:56.832Z,100.00
2022-08-02T20:59:53.192Z,100.00
2022-08-02T21:04:50.608Z,100.00
2022-08-02T21:09:52.740Z,100.00
2022-08-02T21:14:50.876Z,100.00
2022-08-02T21:19:51.746Z,100.00
2022-08-02T21:24:48.052Z,100.00
2022-08-02T21:29:44.395Z,100.00
2022-08-02T21:34:40.751Z,100.00
2022-08-02T21:39:37.097Z,100.00
2022-08-02T21:44:33.615Z,100.00
2022-08-02T21:50:08.659Z,100.00
2022-08-02T21:54:46.402Z,100.00
2022-08-02T21:59:46.171Z,100.00
2022-08-02T22:04:47.560Z,100.00
2022-08-02T22:09:45.576Z,100.00
2022-08-02T22:14:42.176Z,100.00
2022-08-02T22:19:38.840Z,100.00
2022-08-02T22:24:47.543Z,100.00
2022-08-02T22:29:44.065Z,100.00
2022-08-02T22:34:52.170Z,100.00
2022-08-02T22:40:08.667Z,100.00
2022-08-02T22:45:05.639Z,100.00
2022-08-02T22:50:02.264Z,100.00
2022-08-02T22:54:58.670Z,100.00
2022-08-02T22:59:55.926Z,100.00
2022-08-02T23:04:52.504Z,100.00
2022-08-02T23:09:48.852Z,100.00
2022-08-02T23:14:46.857Z,100.00
2022-08-02T23:19:52.502Z,100.00
2022-08-02T23:24:49.829Z,100.00
2022-08-02T23:29:47.717Z,100.00
2022-08-02T23:34:44.085Z,100.00
2022-08-02T23:39:40.461Z,100.00
2022-08-02T23:44:36.782Z,100.00
2022-08-02T23:49:33.204Z,100.00
2022-08-02T23:54:29.645Z,100.00
2022-08-02T23:59:26.069Z,100.00
